Time;durP1;ratioP1;P1;durP2;ratioP2;P2;SDS_P1;SDS_P2;PMS_P1;PMS_P2;Temp;Humidity;BMP_temperature;BMP_pressure;BME280_temperature;BME280_humidity;BME280_pressure;Samples;Min_cycle;Max_cycle;Signal;HPM_P1;HPM_P2
2021/11/01 00:00:23;;;;;;;3.10;2.80;;;14.40;99.90;;;;;;5066365;28;20235;-66
2021/11/01 00:02:53;;;;;;;3.63;3.07;;;14.40;99.90;;;;;;5065526;28;20231;-66
2021/11/01 00:05:23;;;;;;;3.37;2.80;;;14.40;99.90;;;;;;5065061;28;20687;-66
2021/11/01 00:07:51;;;;;;;2.90;2.60;;;14.30;99.90;;;;;;5063016;28;20641;-66
2021/11/01 00:10:21;;;;;;;2.70;2.10;;;14.20;99.90;;;;;;5066413;28;20231;-66
2021/11/01 00:12:49;;;;;;;6.47;2.27;;;14.10;99.90;;;;;;5066899;28;20271;-66
2021/11/01 00:15:18;;;;;;;5.53;2.00;;;14.00;99.90;;;;;;5066810;28;20784;-66
2021/11/01 00:17:47;;;;;;;5.27;1.93;;;13.90;99.90;;;;;;5063121;28;20231;-66
2021/11/01 00:20:20;;;;;;;6.53;1.70;;;13.90;99.90;;;;;;5065782;28;20579;-66
2021/11/01 00:22:50;;;;;;;7.70;1.70;;;13.90;99.90;;;;;;5061350;28;20359;-66
2021/11/01 00:25:20;;;;;;;8.73;2.07;;;13.90;99.90;;;;;;5066365;28;20238;-66
2021/11/01 00:27:49;;;;;;;5.03;2.03;;;13.90;99.90;;;;;;5056483;28;20237;-66
2021/11/01 00:30:19;;;;;;;6.13;1.77;;;13.90;99.90;;;;;;5058573;28;20238;-66
2021/11/01 00:32:48;;;;;;;6.37;1.90;;;13.80;99.90;;;;;;5065193;28;20230;-66
2021/11/01 00:35:18;;;;;;;8.50;1.77;;;13.70;99.90;;;;;;5058443;28;20691;-66
2021/11/01 00:37:47;;;;;;;9.67;1.80;;;13.60;99.90;;;;;;5066801;28;20247;-66
2021/11/01 00:40:16;;;;;;;7.50;1.80;;;13.60;99.90;;;;;;5062612;28;20237;-66
2021/11/01 00:42:47;;;;;;;4.83;1.40;;;13.60;99.90;;;;;;5060925;28;20744;-66
2021/11/01 00:45:16;;;;;;;5.93;1.83;;;13.60;99.90;;;;;;5064664;28;20230;-66
2021/11/01 00:47:44;;;;;;;7.40;1.80;;;13.60;99.90;;;;;;5062480;28;20246;-66
2021/11/01 00:50:14;;;;;;;8.00;1.60;;;13.50;99.90;;;;;;5066065;28;20238;-66
2021/11/01 00:52:45;;;;;;;6.27;1.70;;;13.50;99.90;;;;;;5065253;28;20235;-67
2021/11/01 00:55:22;;;;;;;11.87;1.80;;;13.50;99.90;;;;;;5065981;28;20245;-66
2021/11/01 00:57:51;;;;;;;5.77;1.70;;;13.50;99.90;;;;;;5061374;28;20241;-66
2021/11/01 01:00:22;;;;;;;9.00;1.60;;;13.40;99.90;;;;;;5064620;28;20223;-66
2021/11/01 01:02:51;;;;;;;9.97;1.97;;;13.40;99.90;;;;;;5064933;28;20234;-67
2021/11/01 01:05:20;;;;;;;11.07;1.90;;;13.30;99.90;;;;;;5062324;28;20242;-66
2021/11/01 01:07:50;;;;;;;8.13;1.60;;;13.30;99.90;;;;;;5066193;28;20242;-66
2021/11/01 01:10:18;;;;;;;5.83;1.53;;;13.30;99.90;;;;;;5064186;28;20317;-66
2021/11/01 01:12:47;;;;;;;9.20;1.97;;;13.30;99.90;;;;;;5064525;28;20548;-66
2021/11/01 01:15:20;;;;;;;9.23;1.67;;;13.20;99.90;;;;;;5064934;28;20279;-66
2021/11/01 01:17:49;;;;;;;6.63;1.63;;;13.10;99.90;;;;;;5066223;28;20235;-66
2021/11/01 01:20:20;;;;;;;11.13;1.77;;;13.10;99.90;;;;;;5064623;28;20227;-66
2021/11/01 01:22:50;;;;;;;8.30;1.57;;;13.00;99.90;;;;;;5064475;28;20769;-66
2021/11/01 01:25:29;;;;;;;10.47;2.03;;;13.00;99.90;;;;;;5063324;28;20495;-66
2021/11/01 01:28:04;;;;;;;11.57;2.60;;;12.90;99.90;;;;;;5067299;28;20238;-66
2021/11/01 01:30:33;;;;;;;9.27;2.07;;;12.90;99.90;;;;;;5067829;28;20726;-66
2021/11/01 01:33:01;;;;;;;11.00;2.30;;;12.80;99.90;;;;;;5067227;28;20253;-67
2021/11/01 01:35:34;;;;;;;10.13;2.30;;;12.70;99.90;;;;;;5061973;28;20241;-66
2021/11/01 01:38:04;;;;;;;9.17;1.93;;;12.80;99.90;;;;;;5069814;28;20283;-66
2021/11/01 01:40:33;;;;;;;9.70;2.30;;;12.90;99.90;;;;;;5063865;28;20234;-67
2021/11/01 01:43:03;;;;;;;10.20;1.87;;;12.80;99.90;;;;;;5063877;28;20283;-66
2021/11/01 01:45:32;;;;;;;9.33;1.90;;;12.80;99.90;;;;;;5067891;28;20238;-67
2021/11/01 01:48:00;;;;;;;13.57;2.37;;;12.70;99.90;;;;;;5070305;28;20246;-66
2021/11/01 01:50:29;;;;;;;11.27;1.80;;;12.70;99.90;;;;;;5062392;28;20321;-66
2021/11/01 01:52:58;;;;;;;10.57;1.77;;;12.60;99.90;;;;;;5070222;28;20233;-66
2021/11/01 01:55:31;;;;;;;11.83;2.03;;;12.70;99.90;;;;;;5068573;28;20622;-66
2021/11/01 01:58:00;;;;;;;9.27;1.90;;;12.60;99.90;;;;;;5070158;28;20578;-67
2021/11/01 02:00:46;;;;;;;12.20;2.70;;;12.60;99.90;;;;;;5066806;28;20238;-66
2021/11/01 02:03:18;;;;;;;12.80;2.10;;;12.60;99.90;;;;;;5067865;28;20317;-66
2021/11/01 02:05:55;;;;;;;10.63;2.30;;;12.50;99.90;;;;;;5069408;28;20238;-67
2021/11/01 02:08:24;;;;;;;13.97;2.23;;;12.40;99.90;;;;;;5069591;28;20709;-67
2021/11/01 02:11:03;;;;;;;6.63;1.70;;;12.40;99.90;;;;;;5064343;28;20249;-66
2021/11/01 02:13:34;;;;;;;10.13;2.10;;;12.30;99.90;;;;;;5061647;28;20234;-66
2021/11/01 02:16:04;;;;;;;10.17;2.27;;;12.30;99.90;;;;;;5068138;28;20230;-66
2021/11/01 02:18:36;;;;;;;15.13;2.53;;;12.30;99.90;;;;;;5062029;28;20631;-66
2021/11/01 02:21:31;;;;;;;13.83;2.80;;;12.30;99.90;;;;;;5068033;28;20317;-67
2021/11/01 02:24:07;;;;;;;14.60;2.67;;;12.20;99.90;;;;;;5028264;28;20330;-66
2021/11/01 02:26:39;;;;;;;9.07;2.17;;;12.20;99.90;;;;;;5025975;28;20600;-66
2021/11/01 02:29:09;;;;;;;10.40;1.87;;;12.20;99.90;;;;;;5028215;28;20317;-66
2021/11/01 02:31:40;;;;;;;10.60;2.20;;;12.10;99.90;;;;;;5017224;28;20247;-66
2021/11/01 02:34:08;;;;;;;11.47;1.90;;;12.10;99.90;;;;;;5024541;28;20735;-66
2021/11/01 02:36:37;;;;;;;15.53;2.93;;;12.10;99.90;;;;;;5018535;28;20326;-67
2021/11/01 02:39:06;;;;;;;9.27;2.30;;;12.10;99.90;;;;;;5022596;28;20335;-66
2021/11/01 02:41:36;;;;;;;8.10;2.40;;;12.10;99.90;;;;;;5020933;28;20235;-67
2021/11/01 02:44:07;;;;;;;10.97;2.10;;;12.10;99.90;;;;;;5026799;28;20367;-66
2021/11/01 02:46:37;;;;;;;11.37;2.00;;;12.00;99.90;;;;;;5010097;28;20251;-67
2021/11/01 02:49:06;;;;;;;13.00;1.97;;;12.00;99.90;;;;;;5025219;28;20329;-66
2021/11/01 02:51:35;;;;;;;14.33;2.70;;;12.00;99.90;;;;;;5020046;28;20421;-66
2021/11/01 02:54:04;;;;;;;13.43;2.97;;;11.90;99.90;;;;;;5023462;28;20246;-66
2021/11/01 02:56:32;;;;;;;13.47;3.17;;;12.00;99.90;;;;;;5014671;28;20258;-66
2021/11/01 02:59:02;;;;;;;10.93;2.53;;;12.00;99.90;;;;;;5025535;28;20269;-66
2021/11/01 03:01:30;;;;;;;14.13;2.73;;;12.00;99.90;;;;;;5019287;28;20235;-66
2021/11/01 03:03:58;;;;;;;13.37;2.87;;;11.90;99.90;;;;;;5014241;28;20744;-66
2021/11/01 03:06:30;;;;;;;16.40;2.70;;;11.90;99.90;;;;;;5019054;28;20244;-66
2021/11/01 03:08:58;;;;;;;13.00;2.77;;;11.80;99.90;;;;;;5017938;28;20731;-67
2021/11/01 03:11:28;;;;;;;10.70;2.63;;;11.80;99.90;;;;;;5024436;28;20273;-66
2021/11/01 03:13:58;;;;;;;12.67;2.60;;;11.80;99.90;;;;;;5019273;28;20289;-66
2021/11/01 03:16:29;;;;;;;17.37;2.90;;;11.70;99.90;;;;;;5028107;28;20610;-66
2021/11/01 03:19:06;;;;;;;12.07;2.73;;;11.60;99.90;;;;;;5020937;28;20262;-66
2021/11/01 03:21:41;;;;;;;11.93;2.50;;;11.60;99.90;;;;;;5017965;28;20247;-66
2021/11/01 03:24:11;;;;;;;14.90;3.10;;;11.60;99.90;;;;;;5065334;28;20724;-66
2021/11/01 03:26:40;;;;;;;13.23;3.07;;;11.60;99.90;;;;;;5066706;28;20248;-67
2021/11/01 03:29:11;;;;;;;10.90;2.60;;;11.50;99.90;;;;;;5066057;28;20271;-66
2021/11/01 03:31:42;;;;;;;15.17;3.07;;;11.50;99.90;;;;;;5065825;28;20234;-66
2021/11/01 03:34:11;;;;;;;9.97;2.33;;;11.50;99.90;;;;;;5065103;28;20238;-66
2021/11/01 03:36:40;;;;;;;15.50;2.83;;;11.50;99.90;;;;;;5064220;28;20290;-67
2021/11/01 03:39:11;;;;;;;13.47;3.17;;;11.40;99.90;;;;;;5066248;28;20439;-67
2021/11/01 03:41:41;;;;;;;11.97;2.83;;;11.40;99.90;;;;;;5067036;28;20237;-66
2021/11/01 03:44:16;;;;;;;18.50;2.80;;;11.40;99.90;;;;;;5066992;28;20719;-66
2021/11/01 03:46:51;;;;;;;9.73;2.40;;;11.40;99.90;;;;;;5062798;28;20255;-66
2021/11/01 03:49:21;;;;;;;15.87;2.50;;;11.50;99.90;;;;;;5065161;28;20270;-66
2021/11/01 03:51:51;;;;;;;13.47;2.70;;;11.40;99.90;;;;;;5061311;28;20259;-66
2021/11/01 03:54:22;;;;;;;14.93;3.27;;;11.40;99.90;;;;;;5066906;28;20235;-67
2021/11/01 03:56:52;;;;;;;12.10;2.30;;;11.40;99.90;;;;;;5064495;28;20480;-66
2021/11/01 03:59:21;;;;;;;16.97;2.93;;;11.40;99.90;;;;;;5065926;28;20234;-67
2021/11/01 04:01:50;;;;;;;15.10;3.03;;;11.40;99.90;;;;;;5064974;28;20239;-67
2021/11/01 04:04:19;;;;;;;13.00;2.57;;;11.40;99.90;;;;;;5066055;28;20727;-67
2021/11/01 04:06:47;;;;;;;13.27;2.63;;;11.40;99.90;;;;;;5067307;28;20316;-66
2021/11/01 04:09:17;;;;;;;13.83;2.70;;;11.40;99.90;;;;;;5067553;28;20232;-67
2021/11/01 04:11:50;;;;;;;13.13;2.70;;;11.40;99.90;;;;;;5065686;28;20236;-67
2021/11/01 04:14:21;;;;;;;14.80;3.80;;;11.40;99.90;;;;;;5067793;28;20547;-67
2021/11/01 04:16:56;;;;;;;13.13;2.90;;;11.40;99.90;;;;;;5059352;28;20228;-66
2021/11/01 04:19:45;;;;;;;11.80;2.60;;;11.40;99.90;;;;;;5066600;28;20646;-66
2021/11/01 04:22:15;;;;;;;17.27;3.20;;;11.40;99.90;;;;;;5065334;28;20743;-66
2021/11/01 04:24:44;;;;;;;13.10;2.83;;;11.30;99.90;;;;;;5067024;28;20233;-66
2021/11/01 04:27:12;;;;;;;11.53;2.93;;;11.30;99.90;;;;;;5066747;28;20570;-66
2021/11/01 04:29:42;;;;;;;14.87;3.33;;;11.40;99.90;;;;;;5065813;28;20264;-66
2021/11/01 04:32:21;;;;;;;17.57;3.30;;;11.30;99.90;;;;;;5060085;28;20317;-66
2021/11/01 04:34:55;;;;;;;15.87;3.90;;;11.30;99.90;;;;;;5066604;28;20267;-66
2021/11/01 04:37:23;;;;;;;10.77;2.83;;;11.30;99.90;;;;;;5065826;28;20785;-67
2021/11/01 04:53:48;;;;;;;12.47;3.30;;;11.30;99.90;;;;;;4987556;28;20345;-66
2021/11/01 04:56:20;;;;;;;13.40;2.70;;;11.20;99.90;;;;;;5072509;28;20278;-66
2021/11/01 04:58:48;;;;;;;16.60;3.37;;;11.20;99.90;;;;;;5072225;28;20237;-66
2021/11/01 05:01:21;;;;;;;10.60;3.00;;;11.20;99.90;;;;;;5071654;28;20221;-67
2021/11/01 05:03:53;;;;;;;11.50;3.20;;;11.20;99.90;;;;;;5069356;28;20235;-67
2021/11/01 05:06:25;;;;;;;14.00;3.20;;;11.20;99.90;;;;;;5072008;28;20229;-66
2021/11/01 05:08:58;;;;;;;13.10;3.20;;;11.20;99.90;;;;;;5069383;28;20240;-66
2021/11/01 05:11:32;;;;;;;15.43;3.20;;;11.20;99.90;;;;;;5071373;28;20285;-66
2021/11/01 05:14:02;;;;;;;17.17;3.97;;;11.20;99.90;;;;;;5068717;28;20324;-67
2021/11/01 05:16:41;;;;;;;14.40;3.20;;;11.20;99.90;;;;;;5058628;28;20613;-66
2021/11/01 05:19:19;;;;;;;15.80;4.30;;;11.20;99.90;;;;;;5063097;28;20274;-67
2021/11/01 05:21:55;;;;;;;16.07;3.73;;;11.20;99.90;;;;;;5065254;28;20244;-66
2021/11/01 05:24:29;;;;;;;14.10;3.83;;;11.20;99.90;;;;;;5065412;28;20255;-67
2021/11/01 05:27:24;;;;;;;15.33;4.03;;;11.20;99.90;;;;;;5065446;28;20278;-66
2021/11/01 05:29:53;;;;;;;12.30;3.60;;;11.10;99.90;;;;;;5060813;28;20235;-66
2021/11/01 05:32:24;;;;;;;11.10;3.50;;;11.10;99.90;;;;;;5065292;28;20239;-66
2021/11/01 05:34:53;;;;;;;19.27;5.23;;;11.20;99.90;;;;;;5065913;28;21701;-67
2021/11/01 05:37:21;;;;;;;15.67;4.53;;;11.10;99.90;;;;;;5064257;28;20240;-66
2021/11/01 05:39:50;;;;;;;16.50;4.27;;;11.10;99.90;;;;;;5066133;28;20289;-67
2021/11/01 05:42:18;;;;;;;13.53;4.33;;;11.10;99.90;;;;;;5065123;28;20228;-67
2021/11/01 05:44:46;;;;;;;14.03;4.50;;;11.10;99.90;;;;;;5066139;28;20653;-67
2021/11/01 05:47:15;;;;;;;16.27;4.57;;;11.10;99.90;;;;;;5057949;28;20324;-66
2021/11/01 05:49:43;;;;;;;14.20;4.80;;;11.10;99.90;;;;;;5059907;28;20319;-66
2021/11/01 05:52:18;;;;;;;18.00;4.40;;;11.10;99.90;;;;;;5064396;28;20320;-67
2021/11/01 05:54:46;;;;;;;13.20;4.20;;;11.10;99.90;;;;;;5070605;28;20234;-67
2021/11/01 05:57:19;;;;;;;15.73;4.73;;;11.10;99.90;;;;;;5073108;28;20234;-67
2021/11/01 06:00:04;;;;;;;18.03;4.23;;;11.10;99.90;;;;;;5066412;28;20745;-66
2021/11/01 06:02:45;;;;;;;19.10;4.90;;;11.10;99.90;;;;;;5074676;28;20587;-66
2021/11/01 06:05:39;;;;;;;14.30;4.47;;;11.10;99.90;;;;;;5074860;28;20717;-67
2021/11/01 06:08:27;;;;;;;10.87;4.20;;;11.10;99.90;;;;;;5062449;28;20359;-66
2021/11/01 06:13:41;;;;;;;16.47;4.50;;;11.10;99.90;;;;;;5067771;28;20772;-66
2021/11/01 06:16:09;;;;;;;15.77;4.90;;;11.10;99.90;;;;;;5063820;28;20601;-66
2021/11/01 06:18:38;;;;;;;16.40;4.33;;;11.10;99.90;;;;;;5067756;28;20738;-66
2021/11/01 06:21:11;;;;;;;13.17;4.20;;;11.10;99.90;;;;;;5075684;28;20220;-66
2021/11/01 06:23:42;;;;;;;13.20;4.13;;;11.00;99.90;;;;;;5072271;28;20290;-67
2021/11/01 06:26:11;;;;;;;14.80;4.00;;;11.10;99.90;;;;;;5067821;28;20599;-66
2021/11/01 06:28:42;;;;;;;12.53;4.80;;;11.10;99.90;;;;;;5067956;28;20247;-67
2021/11/01 06:31:13;;;;;;;14.20;4.50;;;11.10;99.90;;;;;;5070705;28;20327;-66
2021/11/01 06:42:16;;;;;;;13.43;4.60;;;11.10;99.90;;;;;;5063056;28;20366;-67
2021/11/01 06:45:19;;;;;;;15.13;4.73;;;11.10;99.90;;;;;;5064616;28;20236;-67
2021/11/01 06:50:50;;;;;;;14.07;4.87;;;11.10;99.90;;;;;;5074869;28;20239;-66
2021/11/01 06:58:54;;;;;;;9.80;4.40;;;11.10;99.90;;;;;;5058831;28;20240;-67
2021/11/01 07:15:12;;;;;;;13.50;4.53;;;11.20;99.90;;;;;;5066618;28;20592;-67
2021/11/01 07:17:44;;;;;;;12.47;4.53;;;11.10;99.90;;;;;;5057689;28;20321;-67
2021/11/01 07:20:22;;;;;;;14.90;5.00;;;11.20;99.90;;;;;;5066002;28;20265;-67
2021/11/01 07:25:59;;;;;;;15.90;4.30;;;11.20;99.90;;;;;;5065890;28;20248;-66
2021/11/01 08:21:14;;;;;;;12.93;3.40;;;11.50;99.90;;;;;;4989723;28;20243;-67
2021/11/01 08:24:00;;;;;;;13.23;2.90;;;11.40;99.90;;;;;;4991587;28;20250;-67
2021/11/01 08:26:54;;;;;;;9.57;3.00;;;11.50;99.90;;;;;;4992077;28;20328;-67
2021/11/01 08:29:45;;;;;;;8.97;2.60;;;11.50;99.90;;;;;;4992005;28;20330;-67
2021/11/01 08:41:08;;;;;;;9.33;2.97;;;11.60;99.90;;;;;;4972445;28;20251;-67
2021/11/01 09:19:54;;;;;;;11.40;2.57;;;12.80;99.90;;;;;;4958457;28;20750;-67
2021/11/01 09:25:15;;;;;;;7.83;2.00;;;12.70;99.90;;;;;;4971879;28;21340;-67
2021/11/01 09:27:53;;;;;;;8.50;1.90;;;12.70;99.90;;;;;;4971742;28;21443;-67
2021/11/01 09:36:09;;;;;;;7.50;2.23;;;12.80;99.90;;;;;;4971731;28;20775;-67
2021/11/01 09:41:24;;;;;;;10.30;2.03;;;13.00;99.90;;;;;;4968510;28;20248;-67
2021/11/01 09:43:54;;;;;;;5.60;1.80;;;13.00;99.90;;;;;;4971870;28;20248;-67
2021/11/01 09:46:25;;;;;;;5.90;1.67;;;13.00;99.90;;;;;;4971242;28;20282;-67
2021/11/01 09:49:09;;;;;;;9.20;2.10;;;12.90;99.90;;;;;;4975785;28;21413;-67
2021/11/01 09:51:37;;;;;;;9.20;2.40;;;12.90;99.90;;;;;;4971120;28;20729;-67
2021/11/01 09:54:07;;;;;;;11.87;2.70;;;12.80;99.90;;;;;;4974355;28;20898;-67
2021/11/01 09:56:46;;;;;;;10.37;2.13;;;12.70;99.90;;;;;;4973811;28;20248;-67
2021/11/01 09:59:15;;;;;;;8.70;2.10;;;12.80;99.90;;;;;;4973936;28;20244;-67
2021/11/01 10:01:46;;;;;;;7.93;2.40;;;12.80;99.90;;;;;;4971242;28;20240;-67
2021/11/01 10:04:16;;;;;;;8.57;2.10;;;12.90;99.90;;;;;;4974486;28;20228;-67
2021/11/01 10:06:48;;;;;;;7.87;2.13;;;12.90;99.90;;;;;;4973981;28;20333;-67
2021/11/01 10:09:16;;;;;;;6.67;2.20;;;13.00;99.90;;;;;;4974477;28;20233;-67
2021/11/01 10:11:49;;;;;;;10.27;2.30;;;13.10;99.90;;;;;;4971548;28;20813;-67
2021/11/01 10:14:19;;;;;;;8.70;2.80;;;13.00;99.90;;;;;;4973376;28;20244;-67
2021/11/01 10:19:35;;;;;;;8.77;2.40;;;12.80;99.90;;;;;;4973487;28;20335;-67
2021/11/01 10:22:06;;;;;;;8.47;2.70;;;12.80;99.90;;;;;;4971416;28;20393;-67
2021/11/01 10:24:39;;;;;;;11.63;2.77;;;12.90;99.90;;;;;;4972977;28;20256;-67
2021/11/01 10:27:10;;;;;;;7.00;2.30;;;13.00;99.90;;;;;;4973814;28;20561;-67
2021/11/01 10:29:51;;;;;;;10.90;2.70;;;12.90;99.90;;;;;;4973771;28;20248;-67
2021/11/01 10:32:36;;;;;;;8.97;2.27;;;13.00;99.90;;;;;;4971291;28;20320;-67
2021/11/01 10:35:18;;;;;;;9.77;2.60;;;13.10;99.90;;;;;;4972699;28;21661;-67
2021/11/01 10:38:10;;;;;;;7.03;2.20;;;13.10;99.90;;;;;;4972768;28;20260;-67
2021/11/01 10:40:45;;;;;;;6.10;2.50;;;13.10;99.90;;;;;;4972084;28;20241;-67
2021/11/01 10:43:39;;;;;;;9.17;2.40;;;13.10;99.90;;;;;;4972945;28;20338;-67
2021/11/01 11:11:38;;;;;;;7.70;2.80;;;13.60;99.90;;;;;;4970544;28;20662;-67
2021/11/01 11:14:17;;;;;;;9.67;3.20;;;13.50;99.90;;;;;;4972394;28;20236;-68
2021/11/01 11:25:40;;;;;;;7.33;3.03;;;13.60;99.90;;;;;;5060816;27;20704;-68
2021/11/01 11:28:38;;;;;;;6.33;2.93;;;13.60;99.90;;;;;;5051848;28;20477;-68
2021/11/01 11:31:29;;;;;;;13.00;3.37;;;13.50;99.90;;;;;;5049318;28;20609;-67
2021/11/01 11:40:02;;;;;;;7.67;2.83;;;13.50;99.90;;;;;;5026189;28;20242;-68
2021/11/01 11:42:49;;;;;;;6.53;3.03;;;13.40;99.90;;;;;;5029727;28;20304;-67
2021/11/01 11:48:16;;;;;;;6.23;2.87;;;13.30;99.90;;;;;;5032270;28;20625;-67
2021/11/01 11:50:45;;;;;;;7.13;3.20;;;13.40;99.90;;;;;;5030494;28;20361;-68
2021/11/01 11:53:15;;;;;;;5.00;2.83;;;13.40;99.90;;;;;;5032873;28;20242;-67
2021/11/01 11:55:46;;;;;;;5.63;2.83;;;13.40;99.90;;;;;;5033321;28;20254;-67
2021/11/01 11:58:16;;;;;;;7.80;3.03;;;13.40;99.90;;;;;;5032406;28;20745;-67
2021/11/01 12:00:44;;;;;;;5.10;2.63;;;13.40;99.90;;;;;;5030478;28;20249;-68
2021/11/01 12:03:16;;;;;;;4.97;2.60;;;13.40;99.90;;;;;;5033474;28;20246;-68
2021/11/01 12:05:49;;;;;;;5.77;2.70;;;13.40;99.90;;;;;;5033830;28;20281;-67
2021/11/01 12:08:24;;;;;;;6.80;2.90;;;13.30;99.90;;;;;;5032712;28;20242;-68
2021/11/01 12:11:14;;;;;;;6.93;3.13;;;13.40;99.90;;;;;;5030814;28;20305;-67
2021/11/01 12:17:31;;;;;;;8.23;2.70;;;13.70;99.90;;;;;;5034714;28;20240;-68
2021/11/01 12:21:39;;;;;;;5.80;2.57;;;13.50;99.90;;;;;;5034079;28;20603;-67
2021/11/01 12:58:04;;;;;;;5.60;2.53;;;13.50;99.90;;;;;;4993253;28;20301;-68
2021/11/01 13:00:41;;;;;;;5.93;2.53;;;13.50;99.90;;;;;;5018845;28;20250;-67
2021/11/01 13:03:21;;;;;;;6.83;2.40;;;13.60;99.90;;;;;;5018725;28;21519;-68
2021/11/01 13:05:54;;;;;;;6.53;3.00;;;13.60;99.90;;;;;;5018348;28;20330;-67
2021/11/01 13:08:28;;;;;;;5.10;2.87;;;13.60;99.90;;;;;;5019289;28;20316;-68
2021/11/01 13:11:01;;;;;;;5.93;2.57;;;13.50;99.90;;;;;;5016229;28;20713;-68
2021/11/01 13:13:59;;;;;;;5.80;2.80;;;13.50;99.90;;;;;;5018155;28;20243;-68
2021/11/01 13:19:22;;;;;;;4.13;2.40;;;13.40;99.90;;;;;;5016169;28;20297;-67
2021/11/01 13:21:54;;;;;;;7.83;2.47;;;13.40;99.90;;;;;;5013375;28;20365;-68
2021/11/01 13:24:37;;;;;;;4.70;2.40;;;13.50;99.90;;;;;;5018739;28;20242;-68
2021/11/01 13:27:27;;;;;;;6.67;2.73;;;13.50;99.90;;;;;;5018863;28;20250;-69
2021/11/01 13:35:45;;;;;;;4.37;2.60;;;13.50;99.90;;;;;;5018725;28;20246;-67
2021/11/01 13:38:24;;;;;;;7.70;2.77;;;13.50;99.90;;;;;;5020039;28;20336;-67
2021/11/01 13:40:52;;;;;;;5.43;2.50;;;13.50;99.90;;;;;;5015660;28;20258;-67
2021/11/01 13:43:29;;;;;;;6.20;2.90;;;13.50;99.90;;;;;;5018892;28;20263;-67
2021/11/01 13:45:59;;;;;;;4.60;2.80;;;13.50;99.90;;;;;;5019464;28;20324;-67
2021/11/01 13:48:31;;;;;;;6.03;2.40;;;13.50;99.90;;;;;;5016547;28;20248;-67
2021/11/01 13:51:07;;;;;;;6.20;2.80;;;13.50;99.90;;;;;;5016802;28;20243;-67
2021/11/01 13:53:41;;;;;;;5.43;2.90;;;13.50;99.90;;;;;;5018423;28;20633;-67
2021/11/01 13:56:22;;;;;;;4.80;2.50;;;13.50;99.90;;;;;;5018993;28;20323;-66
2021/11/01 13:59:02;;;;;;;5.30;2.57;;;13.60;99.90;;;;;;4999144;28;20250;-67
2021/11/01 14:12:46;;;;;;;5.23;2.50;;;13.50;99.90;;;;;;5017034;28;20527;-68
2021/11/01 14:15:30;;;;;;;5.87;2.70;;;13.50;99.90;;;;;;5013123;28;20297;-68
2021/11/01 14:29:14;;;;;;;4.73;2.70;;;13.20;99.90;;;;;;5023205;28;20251;-68
2021/11/01 14:32:18;;;;;;;5.53;3.07;;;13.20;99.90;;;;;;5024750;28;20324;-69
2021/11/01 15:00:23;;;;;;;5.63;2.97;;;12.80;99.90;;;;;;5016254;28;20296;-68
2021/11/01 15:17:37;;;;;;;5.53;2.63;;;12.50;99.90;;;;;;4989892;28;20274;-68
2021/11/01 15:20:31;;;;;;;6.40;2.43;;;12.60;99.90;;;;;;5008206;28;20244;-67
2021/11/01 15:36:11;;;;;;;4.73;2.37;;;12.50;99.90;;;;;;4924195;28;21071;-68
2021/11/01 15:38:51;;;;;;;5.13;2.67;;;12.40;99.90;;;;;;5006299;28;20239;-68
2021/11/01 16:17:29;;;;;;;6.03;2.30;;;12.00;99.90;;;;;;5020497;28;20777;-69
2021/11/01 16:19:59;;;;;;;4.93;2.40;;;12.00;99.90;;;;;;5019909;28;20234;-67
2021/11/01 16:22:27;;;;;;;4.57;2.13;;;12.00;99.90;;;;;;5020457;28;20238;-69
2021/11/01 16:24:56;;;;;;;8.23;2.70;;;12.00;99.90;;;;;;5017521;28;20331;-68
2021/11/01 16:27:25;;;;;;;4.70;2.60;;;11.90;99.90;;;;;;5020417;28;20775;-68
2021/11/01 16:30:00;;;;;;;5.73;2.60;;;11.90;99.90;;;;;;5019577;28;20773;-68
2021/11/01 16:32:34;;;;;;;4.80;2.30;;;11.90;99.90;;;;;;5018905;28;20329;-68
2021/11/01 16:35:07;;;;;;;5.80;2.60;;;11.80;99.90;;;;;;5016834;28;20331;-68
2021/11/01 16:37:44;;;;;;;6.93;2.70;;;11.80;99.90;;;;;;5019192;28;20222;-69
2021/11/01 16:40:13;;;;;;;6.67;2.27;;;11.70;99.90;;;;;;5019057;28;20324;-68
2021/11/01 16:42:43;;;;;;;3.90;2.20;;;11.70;99.90;;;;;;5018170;28;20234;-69
2021/11/01 16:45:15;;;;;;;5.93;1.97;;;11.70;99.90;;;;;;5016391;28;20737;-68
2021/11/01 16:47:46;;;;;;;4.00;1.90;;;11.70;99.90;;;;;;5019120;28;20902;-67
2021/11/01 16:50:20;;;;;;;5.00;1.90;;;11.70;99.90;;;;;;5018311;28;20799;-68
2021/11/01 16:52:49;;;;;;;3.57;1.80;;;11.60;99.90;;;;;;5018655;28;20244;-68
2021/11/01 16:55:21;;;;;;;7.37;2.10;;;11.60;99.90;;;;;;5017381;28;20778;-69
2021/11/01 16:57:56;;;;;;;2.83;1.90;;;11.60;99.90;;;;;;5021586;28;20244;-67
2021/11/01 17:00:33;;;;;;;5.77;2.20;;;11.60;99.90;;;;;;5018496;28;20324;-68
2021/11/01 17:03:14;;;;;;;5.47;2.87;;;11.60;99.90;;;;;;5018768;28;20592;-69
2021/11/01 17:05:53;;;;;;;6.60;2.70;;;11.50;99.90;;;;;;5016500;28;20250;-68
2021/11/01 17:22:23;;;;;;;5.00;2.90;;;11.40;99.90;;;;;;5004371;28;20270;-68
2021/11/01 17:24:57;;;;;;;7.23;3.00;;;11.40;99.90;;;;;;5016503;28;20345;-69
2021/11/01 17:36:19;;;;;;;5.23;2.80;;;11.30;99.90;;;;;;5018716;28;20330;-68
2021/11/01 18:23:49;;;;;;;4.00;2.50;;;11.30;99.90;;;;;;5019864;28;20450;-69
2021/11/01 18:40:41;;;;;;;4.47;3.27;;;10.90;99.90;;;;;;4980386;28;20298;-69
2021/11/01 18:43:19;;;;;;;4.20;3.07;;;10.90;99.90;;;;;;4996738;28;20327;-69
2021/11/01 18:51:29;;;;;;;5.10;3.10;;;10.80;99.90;;;;;;5003959;28;20269;-69
2021/11/01 18:54:06;;;;;;;4.77;2.70;;;10.80;99.90;;;;;;5003433;28;20281;-67
2021/11/01 18:56:37;;;;;;;5.47;2.97;;;10.80;99.90;;;;;;4996569;28;20242;-69
2021/11/01 18:59:08;;;;;;;6.47;3.47;;;10.80;99.90;;;;;;4998005;28;20235;-70
2021/11/01 19:01:39;;;;;;;5.93;3.67;;;10.70;99.90;;;;;;5002419;28;20709;-68
2021/11/01 19:04:12;;;;;;;5.27;3.10;;;10.70;99.90;;;;;;5005963;28;20234;-69
2021/11/01 19:06:48;;;;;;;5.43;3.50;;;10.70;99.90;;;;;;5004554;28;20253;-69
2021/11/01 19:09:36;;;;;;;5.67;4.10;;;10.60;99.90;;;;;;5003493;28;20243;-69
2021/11/01 20:03:05;;;;;;;8.17;5.67;;;10.30;99.90;;;;;;5014009;28;20295;-69
2021/11/01 20:05:42;;;;;;;6.67;5.97;;;10.40;99.90;;;;;;5014002;28;20243;-67
2021/11/01 20:08:36;;;;;;;8.87;6.03;;;10.30;99.90;;;;;;5009984;28;20246;-69
2021/11/01 20:11:28;;;;;;;8.33;5.70;;;10.20;99.90;;;;;;5021383;28;20644;-69
2021/11/01 21:24:48;;;;;;;7.00;3.37;;;9.60;99.90;;;;;;5019790;28;20264;-68
2021/11/01 21:27:20;;;;;;;5.23;3.30;;;9.60;99.90;;;;;;5020412;28;20386;-69
2021/11/01 21:29:50;;;;;;;6.00;3.10;;;9.60;99.90;;;;;;5013626;28;20265;-70
2021/11/01 21:32:20;;;;;;;4.23;2.73;;;9.50;99.90;;;;;;5020051;28;20263;-69
2021/11/01 21:34:56;;;;;;;5.43;2.80;;;9.60;99.90;;;;;;5020108;28;20775;-69
2021/11/01 21:37:25;;;;;;;7.03;2.90;;;9.60;99.90;;;;;;5019545;28;20242;-69
2021/11/01 21:39:54;;;;;;;4.30;2.70;;;9.70;99.90;;;;;;5013044;28;20256;-69
2021/11/01 21:42:28;;;;;;;6.33;3.10;;;9.60;99.90;;;;;;5019536;28;20237;-70
2021/11/01 21:45:08;;;;;;;4.47;2.80;;;9.60;99.90;;;;;;2353399;28;10022799;-68
2021/11/01 21:47:39;;;;;;;5.40;2.77;;;9.60;99.90;;;;;;3964952;28;10001626;-69
2021/11/01 21:50:08;;;;;;;4.50;2.40;;;9.50;99.90;;;;;;4993640;28;20484;-67
2021/11/01 21:53:01;;;;;;;4.03;2.77;;;9.60;99.90;;;;;;5000315;28;20323;-69
2021/11/01 21:55:30;;;;;;;4.00;2.60;;;9.50;99.90;;;;;;4999518;28;21705;-68
2021/11/01 21:58:04;;;;;;;4.70;2.70;;;9.50;99.90;;;;;;4999491;28;20233;-68
2021/11/01 22:00:45;;;;;;;5.20;2.80;;;9.60;99.90;;;;;;4993927;28;20233;-70
2021/11/01 22:17:19;;;;;;;3.37;2.60;;;9.40;99.90;;;;;;4999811;28;20252;-68
2021/11/01 22:19:59;;;;;;;5.30;3.00;;;9.40;99.90;;;;;;4992935;28;21046;-69
2021/11/01 22:22:46;;;;;;;4.50;2.77;;;9.40;99.90;;;;;;4999839;28;20241;-68
2021/11/01 22:25:19;;;;;;;6.53;3.03;;;9.40;99.90;;;;;;4999858;28;20574;-69
2021/11/01 22:33:42;;;;;;;7.23;2.50;;;9.40;99.90;;;;;;4991177;28;20258;-69
2021/11/01 22:39:04;;;;;;;6.80;2.60;;;9.30;99.90;;;;;;4985896;28;20319;-69
2021/11/01 22:58:41;;;;;;;5.60;3.00;;;9.30;99.90;;;;;;5063732;27;20580;-69
2021/11/01 23:01:17;;;;;;;5.10;2.60;;;9.30;99.90;;;;;;5062690;28;20251;-70
2021/11/01 23:03:53;;;;;;;5.23;3.00;;;9.30;99.90;;;;;;5060263;28;20698;-69
2021/11/01 23:31:29;;;;;;;6.80;2.70;;;9.10;99.90;;;;;;5064340;28;20239;-70
2021/11/01 23:33:59;;;;;;;7.10;3.07;;;9.20;99.90;;;;;;5046647;28;20234;-69
2021/11/01 23:36:28;;;;;;;6.13;2.67;;;9.20;99.90;;;;;;5071578;28;20262;-67
2021/11/01 23:38:56;;;;;;;4.67;2.27;;;9.10;99.90;;;;;;5079445;28;20234;-69
2021/11/01 23:41:25;;;;;;;4.50;2.27;;;9.20;99.90;;;;;;5083086;28;20230;-70
2021/11/01 23:43:53;;;;;;;3.30;2.20;;;9.20;99.90;;;;;;5083858;28;20234;-70
2021/11/01 23:46:22;;;;;;;6.80;2.30;;;9.20;99.90;;;;;;5083535;28;20909;-68
2021/11/01 23:48:52;;;;;;;5.40;2.50;;;9.20;99.90;;;;;;5083440;28;20256;-70
2021/11/01 23:51:29;;;;;;;4.93;2.57;;;9.20;99.90;;;;;;5082552;28;20608;-69
2021/11/01 23:54:13;;;;;;;4.37;2.47;;;9.10;99.90;;;;;;5083355;28;20321;-68